createdAt,value
2019-05-02T00:00:11.439Z,10.5
2019-05-02T00:01:13.498Z,11.1
2019-05-02T00:03:17.719Z,11.1
2019-05-02T00:05:33.935Z,10.9
2019-05-02T00:06:44.890Z,10.8
2019-05-02T00:07:46.972Z,10.7
2019-05-02T00:08:49.037Z,10.6
2019-05-02T00:09:51.894Z,10.4
2019-05-02T00:10:53.963Z,10.6
2019-05-02T00:13:02.158Z,10.9
2019-05-02T00:15:06.629Z,10.5
2019-05-02T00:16:16.099Z,11.1
2019-05-02T00:17:28.095Z,10.5
2019-05-02T00:18:40.079Z,10.7
2019-05-02T00:19:52.395Z,10.8
2019-05-02T00:21:03.830Z,10.7
2019-05-02T00:23:08.327Z,11.3
2019-05-02T00:25:18.519Z,10.6
2019-05-02T00:26:26.710Z,10.7
2019-05-02T00:27:37.643Z,10.6
2019-05-02T00:28:50.869Z,10.6
2019-05-02T00:30:01.030Z,10.7
2019-05-02T00:31:13.013Z,11.2
2019-05-02T00:32:24.732Z,11
2019-05-02T00:33:36.504Z,11.1
2019-05-02T00:34:38.550Z,10.8
2019-05-02T00:35:48.339Z,10.6
2019-05-02T00:36:50.421Z,10.7
2019-05-02T00:37:52.507Z,10.8
2019-05-02T00:39:56.690Z,11
2019-05-02T00:41:04.557Z,11
2019-05-02T00:42:24.475Z,11
2019-05-02T00:43:37.762Z,10.4
2019-05-02T00:44:48.916Z,10.5
2019-05-02T00:45:59.693Z,10.8
2019-05-02T00:47:13.094Z,10.7
2019-05-02T00:48:23.054Z,10.1
2019-05-02T00:49:25.322Z,10.6
2019-05-02T00:50:27.404Z,10.1
2019-05-02T00:52:38.431Z,10.7
2019-05-02T00:53:49.795Z,10.4
2019-05-02T00:55:00.493Z,10.5
2019-05-02T00:57:22.405Z,10.3
2019-05-02T00:58:34.123Z,10.9
2019-05-02T00:59:44.223Z,11.1
2019-05-02T01:00:55.820Z,10.5
2019-05-02T01:02:07.916Z,10.4
2019-05-02T01:03:18.589Z,10.7
2019-05-02T01:04:29.649Z,10.5
2019-05-02T01:05:40.923Z,10.8
2019-05-02T01:06:51.777Z,10.6
2019-05-02T01:08:03.581Z,10.2
2019-05-02T01:10:23.529Z,10.3
2019-05-02T01:11:34.075Z,10.1
2019-05-02T01:12:46.108Z,10.7
2019-05-02T01:13:58.379Z,11.1
2019-05-02T01:15:10.367Z,10.3
2019-05-02T01:16:21.279Z,10.3
2019-05-02T01:17:32.926Z,10.8
2019-05-02T01:18:43.186Z,10.7
2019-05-02T01:19:53.350Z,10.6
2019-05-02T01:21:04.853Z,10.8
2019-05-02T01:22:17.912Z,10.6
2019-05-02T01:23:30.178Z,10.6
2019-05-02T01:24:42.332Z,10.9
2019-05-02T01:25:55.188Z,10.2
2019-05-02T01:27:07.140Z,10.4
2019-05-02T01:28:19.474Z,10.8
2019-05-02T01:29:32.190Z,10.7
2019-05-02T01:30:44.906Z,10.7
2019-05-02T01:31:56.481Z,10.3
2019-05-02T01:33:08.682Z,10.4
2019-05-02T01:34:19.988Z,10.8
2019-05-02T01:36:24.738Z,10.8
2019-05-02T01:38:34.641Z,10.6
2019-05-02T01:39:44.717Z,11.1
2019-05-02T01:40:55.401Z,10.6
2019-05-02T01:42:06.034Z,10.6
2019-05-02T01:43:08.111Z,10.8
2019-05-02T01:44:10.470Z,10.4
2019-05-02T01:46:24.805Z,10.7
2019-05-02T01:47:36.490Z,11
2019-05-02T01:48:48.320Z,11
2019-05-02T01:49:59.824Z,11.1
2019-05-02T01:51:12.846Z,11
2019-05-02T01:52:24.955Z,10.9
2019-05-02T01:53:36.464Z,10.7
2019-05-02T01:54:48.192Z,10.8
2019-05-02T01:56:00.091Z,10.9
2019-05-02T01:58:23.547Z,10.8
2019-05-02T01:59:35.571Z,10.7
2019-05-02T02:00:46.760Z,10.7
2019-05-02T02:01:53.073Z,10.4
2019-05-02T02:03:57.815Z,10.5
2019-05-02T02:06:10.788Z,10.7
2019-05-02T02:07:22.253Z,11.1
2019-05-02T02:08:34.654Z,10.5
2019-05-02T02:09:46.448Z,10.6
2019-05-02T02:10:59.040Z,10.7
2019-05-02T02:12:11.450Z,10.7
2019-05-02T02:13:13.529Z,10.9
2019-05-02T02:14:20.170Z,10.6
2019-05-02T02:15:31.010Z,10.8
2019-05-02T02:16:41.219Z,11.1
2019-05-02T02:17:52.951Z,10.6
2019-05-02T02:19:05.340Z,10.7
2019-05-02T02:20:16.320Z,10.7
2019-05-02T02:21:28.249Z,10.6
2019-05-02T02:22:41.369Z,10.6
2019-05-02T02:23:51.621Z,10.9
2019-05-02T02:25:03.630Z,10.7
2019-05-02T02:26:14.875Z,10.7
2019-05-02T02:27:26.510Z,10.7
2019-05-02T02:29:45.977Z,10.8
2019-05-02T02:31:50.152Z,11.1
2019-05-02T02:32:52.636Z,10.7
2019-05-02T02:33:55.122Z,10.6
2019-05-02T02:35:12.634Z,10.7
2019-05-02T02:37:18.409Z,10.8
2019-05-02T02:39:23.908Z,10.7
2019-05-02T02:40:36.651Z,10.7
2019-05-02T02:41:39.415Z,10.8
2019-05-02T02:42:41.505Z,10.6
2019-05-02T02:44:46.397Z,10.8
2019-05-02T02:46:00.742Z,10.7
2019-05-02T02:47:03.149Z,10.9
2019-05-02T02:48:05.533Z,10.7
2019-05-02T02:49:13.835Z,10.8
2019-05-02T02:50:15.995Z,10.5
2019-05-02T02:51:27.199Z,10.5
2019-05-02T02:52:30.340Z,10.8
2019-05-02T02:54:45.873Z,10.6
2019-05-02T02:56:51.572Z,10.7
2019-05-02T02:58:07.418Z,10.4
2019-05-02T02:59:10.182Z,10.8
2019-05-02T03:00:13.537Z,10.5
2019-05-02T03:01:32.291Z,10.6
2019-05-02T03:02:34.724Z,10.8
2019-05-02T03:04:47.290Z,10.9
2019-05-02T03:05:49.663Z,10.4
2019-05-02T03:06:52.076Z,10.6
2019-05-02T03:08:07.499Z,10.4
2019-05-02T03:09:09.619Z,10.5
2019-05-02T03:10:11.991Z,10.8
2019-05-02T03:11:26.437Z,10.9
2019-05-02T03:12:28.930Z,10.9
2019-05-02T03:14:33.124Z,11.1
2019-05-02T03:15:35.461Z,11
2019-05-02T03:16:50.421Z,10.4
2019-05-02T03:17:52.489Z,10.5
2019-05-02T03:20:04.779Z,10.5
2019-05-02T03:21:07.472Z,10.9
2019-05-02T03:22:10.132Z,10.8
2019-05-02T03:23:24.926Z,10.8
2019-05-02T03:24:27.433Z,10.9
2019-05-02T03:25:52.462Z,11.1
2019-05-02T03:26:59.878Z,11.1
2019-05-02T03:28:02.677Z,10.9
2019-05-02T03:30:07.196Z,11.1
2019-05-02T03:31:32.340Z,11
2019-05-02T03:32:37.963Z,10.5
2019-05-02T03:34:02.556Z,10.5
2019-05-02T03:35:05.288Z,10.5
2019-05-02T03:36:37.981Z,10.8
2019-05-02T03:37:54.220Z,11.1
2019-05-02T03:40:02.064Z,10.6
2019-05-02T03:42:06.915Z,10.7
2019-05-02T03:44:27.701Z,10.7
2019-05-02T03:45:43.929Z,11.1
2019-05-02T03:46:46.033Z,10.8
2019-05-02T03:47:48.890Z,10.7
2019-05-02T03:49:54.228Z,11
2019-05-02T03:52:07.275Z,10.5
2019-05-02T03:54:12.028Z,10.7
2019-05-02T03:55:15.107Z,10.7
2019-05-02T03:57:42.667Z,10.9
2019-05-02T03:58:59.876Z,11.2
2019-05-02T04:00:01.957Z,11.1
2019-05-02T04:02:13.866Z,10.7
2019-05-02T04:04:25.280Z,11.1
2019-05-02T04:05:33.619Z,11.3
2019-05-02T04:06:36.455Z,11
2019-05-02T04:07:43.895Z,11.3
2019-05-02T04:09:48.556Z,11.5
2019-05-02T04:11:02.771Z,11.6
2019-05-02T04:12:11.390Z,11.4
2019-05-02T04:14:40.374Z,11
2019-05-02T04:15:43.066Z,10.9
2019-05-02T04:16:58.246Z,10.6
2019-05-02T04:18:00.598Z,10.7
2019-05-02T04:20:13.959Z,10.8
2019-05-02T04:22:18.711Z,11.2
2019-05-02T04:23:30.549Z,11.1
2019-05-02T04:24:32.652Z,11.4
2019-05-02T04:25:36.383Z,11.1
2019-05-02T04:27:40.791Z,10.9
2019-05-02T04:28:54.325Z,11
2019-05-02T04:29:56.981Z,10.9
2019-05-02T04:32:15.320Z,11.4
2019-05-02T04:34:19.799Z,11.4
2019-05-02T04:35:22.546Z,11
2019-05-02T04:37:27.953Z,11.4
2019-05-02T04:38:53.312Z,11.3
2019-05-02T04:40:13.237Z,11.2
2019-05-02T04:41:35.200Z,10.8
2019-05-02T04:42:41.092Z,10.7
2019-05-02T04:44:02.817Z,11
2019-05-02T04:46:00.500Z,11.1
2019-05-02T04:47:23.534Z,11.1
2019-05-02T04:48:28.671Z,11.3
2019-05-02T04:49:40.152Z,11.5
2019-05-02T04:52:21.430Z,11.2
2019-05-02T04:53:50.433Z,11.1
2019-05-02T04:54:52.955Z,10.9
2019-05-02T04:56:11.951Z,11
2019-05-02T04:57:14.670Z,10.9
2019-05-02T04:58:41.214Z,11.2
2019-05-02T04:59:43.298Z,11.2
2019-05-02T05:01:02.762Z,11.5
2019-05-02T05:02:08.681Z,10.8
2019-05-02T05:03:22.005Z,11.2
2019-05-02T05:04:24.755Z,11.2
2019-05-02T05:05:32.697Z,11
2019-05-02T05:06:34.783Z,11.1
2019-05-02T05:07:50.464Z,11.2
2019-05-02T05:10:05.102Z,11.5
2019-05-02T05:12:10.938Z,11.3
2019-05-02T05:13:29.432Z,11.1
2019-05-02T05:14:44.193Z,11.4
2019-05-02T05:15:52.953Z,11.6
2019-05-02T05:16:58.982Z,11.3
2019-05-02T05:18:15.266Z,11.3
2019-05-02T05:19:28.545Z,11.1
2019-05-02T05:21:42.899Z,10.9
2019-05-02T05:22:48.697Z,11.2
2019-05-02T05:24:02.630Z,11.3
2019-05-02T05:25:07.204Z,11.4
2019-05-02T05:27:23.631Z,11.4
2019-05-02T05:29:30.268Z,10.9
2019-05-02T05:31:34.494Z,11.7
2019-05-02T05:32:38.976Z,11.7
2019-05-02T05:34:43.190Z,11.5
2019-05-02T05:35:53.860Z,11.7
2019-05-02T05:36:58.489Z,11.7
2019-05-02T05:39:12.409Z,11.5
2019-05-02T05:40:14.482Z,11.3
2019-05-02T05:41:24.118Z,11.4
2019-05-02T05:42:34.686Z,11.4
2019-05-02T05:43:39.320Z,11.4
2019-05-02T05:44:41.417Z,11.4
2019-05-02T05:46:13.788Z,11.2
2019-05-02T05:47:22.582Z,11.5
2019-05-02T05:49:29.623Z,11.5
2019-05-02T05:50:42.135Z,11.5
2019-05-02T05:51:44.219Z,11.3
2019-05-02T05:52:48.250Z,11.6
2019-05-02T05:54:03.807Z,11.8
2019-05-02T05:55:18.116Z,11.8
2019-05-02T05:56:22.932Z,11.8
2019-05-02T05:57:25.017Z,11.7
2019-05-02T05:59:33.221Z,12.1
2019-05-02T06:01:40.111Z,12
2019-05-02T06:03:14.705Z,11.4
2019-05-02T06:04:33.806Z,12.1
2019-05-02T06:05:43.111Z,12.4
2019-05-02T06:06:45.173Z,11.8
2019-05-02T06:07:48.525Z,11.8
2019-05-02T06:08:56.303Z,11.8
2019-05-02T06:10:10.585Z,11.4
2019-05-02T06:11:22.459Z,11.7
2019-05-02T06:12:36.728Z,12
2019-05-02T06:13:51.168Z,12
2019-05-02T06:15:04.436Z,12.1
2019-05-02T06:16:17.031Z,11.8
2019-05-02T06:17:30.743Z,11.8
2019-05-02T06:18:44.346Z,12.2
2019-05-02T06:19:56.067Z,12.3
2019-05-02T06:21:11.219Z,12.2
2019-05-02T06:22:26.314Z,12.1
2019-05-02T06:23:42.489Z,11.8
2019-05-02T06:24:52.801Z,11.7
2019-05-02T06:25:54.886Z,12.2
2019-05-02T06:26:57.237Z,11.7
2019-05-02T06:28:07.419Z,11.7
2019-05-02T06:29:21.922Z,12.1
2019-05-02T06:30:32.990Z,12.2
2019-05-02T06:31:45.082Z,11.7
2019-05-02T06:32:57.279Z,11.6
2019-05-02T06:34:09.003Z,11.8
2019-05-02T06:36:13.174Z,11.8
2019-05-02T06:37:16.795Z,12.2
2019-05-02T06:39:34.248Z,11.9
2019-05-02T06:40:47.285Z,12.1
2019-05-02T06:41:59.331Z,12.5
2019-05-02T06:43:12.051Z,12.5
2019-05-02T06:44:25.573Z,12.5
2019-05-02T06:45:27.627Z,12.6
2019-05-02T06:46:30.787Z,12.5
2019-05-02T06:47:44.294Z,12.1
2019-05-02T06:48:54.659Z,12.1
2019-05-02T06:51:21.409Z,12
2019-05-02T06:52:35.062Z,12.2
2019-05-02T06:53:48.933Z,12.1
2019-05-02T06:56:02.316Z,12.2
2019-05-02T06:57:04.412Z,12.6
2019-05-02T06:59:20.959Z,11.9
2019-05-02T07:00:59.875Z,12.3
2019-05-02T07:02:01.913Z,12.5
2019-05-02T07:03:12.311Z,12.3
2019-05-02T07:04:25.957Z,12.6
2019-05-02T07:07:00.969Z,12.4
2019-05-02T07:08:15.249Z,12.5
2019-05-02T07:09:17.793Z,12.4
2019-05-02T07:10:45.135Z,12.4
2019-05-02T07:12:02.456Z,12.3
2019-05-02T07:13:16.889Z,12.6
2019-05-02T07:14:26.204Z,12.2
2019-05-02T07:15:33.376Z,12.5
2019-05-02T07:16:40.001Z,12.4
2019-05-02T07:18:50.954Z,12.2
2019-05-02T07:19:53.033Z,12.3
2019-05-02T07:22:05.251Z,12.3
2019-05-02T07:23:19.019Z,12.4
2019-05-02T07:24:30.497Z,12.6
2019-05-02T07:26:36.627Z,12.3
2019-05-02T07:28:48.395Z,12.4
2019-05-02T07:30:00.267Z,12.2
2019-05-02T07:31:13.885Z,12.1
2019-05-02T07:32:27.391Z,11.8
2019-05-02T07:33:39.422Z,11.7
2019-05-02T07:34:50.132Z,12.3
2019-05-02T07:36:02.395Z,12.5
2019-05-02T07:37:14.399Z,12.5
2019-05-02T07:38:27.999Z,12.2
2019-05-02T07:39:30.346Z,12.4
2019-05-02T07:41:38.306Z,12.3
2019-05-02T07:42:44.429Z,11.8
2019-05-02T07:43:46.558Z,12.1
2019-05-02T07:44:48.690Z,12
2019-05-02T07:45:50.803Z,12.1
2019-05-02T07:47:05.226Z,12.3
2019-05-02T07:49:09.453Z,12.7
2019-05-02T07:51:23.322Z,12.8
2019-05-02T07:52:35.374Z,12.5
2019-05-02T07:53:38.922Z,12.7
2019-05-02T07:54:41.022Z,13.3
2019-05-02T07:55:43.816Z,13.1
2019-05-02T07:56:55.219Z,12.7
2019-05-02T07:58:59.399Z,12.8
2019-05-02T08:01:15.928Z,12.8
2019-05-02T08:02:27.042Z,13
2019-05-02T08:03:35.850Z,12.7
2019-05-02T08:04:37.953Z,12.3
2019-05-02T08:05:40.035Z,12.8
2019-05-02T08:06:47.304Z,12.6
2019-05-02T08:07:56.120Z,12.6
2019-05-02T08:09:09.842Z,12.7
2019-05-02T08:11:18.855Z,12.7
2019-05-02T08:13:23.093Z,12.6
2019-05-02T08:14:36.408Z,12.8
2019-05-02T08:15:38.515Z,12.8
2019-05-02T08:16:40.975Z,12.5
2019-05-02T08:18:45.186Z,12.8
2019-05-02T08:20:58.031Z,12.5
2019-05-02T08:22:14.889Z,12.3
2019-05-02T08:23:28.502Z,12.6
2019-05-02T08:24:39.961Z,12.9
2019-05-02T08:25:47.358Z,12.6
2019-05-02T08:26:59.587Z,12.4
2019-05-02T08:28:15.419Z,12.2
2019-05-02T08:29:17.742Z,12.8
2019-05-02T08:31:22.135Z,13.1
2019-05-02T08:32:24.215Z,12.7
2019-05-02T08:33:37.265Z,12.7
2019-05-02T08:34:39.312Z,13.1
2019-05-02T08:36:43.525Z,12.7
2019-05-02T08:38:56.003Z,12.8
2019-05-02T08:41:00.547Z,12.8
2019-05-02T08:42:02.642Z,12.8
2019-05-02T08:43:12.119Z,12.7
2019-05-02T08:44:19.030Z,12.8
2019-05-02T08:46:23.226Z,13.2
2019-05-02T08:48:44.405Z,12.8
2019-05-02T08:49:57.345Z,12.8
2019-05-02T08:50:59.420Z,13.2
2019-05-02T08:52:01.906Z,12.5
2019-05-02T08:54:06.095Z,12.9
2019-05-02T08:56:23.485Z,13.1
2019-05-02T08:58:27.886Z,12.8
2019-05-02T08:59:30.035Z,12.9
2019-05-02T09:00:40.370Z,12.9
2019-05-02T09:01:52.364Z,12.9
2019-05-02T09:03:05.701Z,12.9
2019-05-02T09:04:07.803Z,13
2019-05-02T09:06:11.996Z,12.1
2019-05-02T09:08:17.743Z,12.2
2019-05-02T09:09:30.490Z,12.2
2019-05-02T09:10:32.541Z,12.4
2019-05-02T09:11:34.945Z,12.6
2019-05-02T09:12:46.187Z,12.5
2019-05-02T09:13:48.562Z,12.3
2019-05-02T09:15:56.302Z,12.6
2019-05-02T09:17:17.219Z,12.5
2019-05-02T09:18:19.237Z,12.4
2019-05-02T09:19:27.351Z,12.4
2019-05-02T09:21:36.934Z,12.4
2019-05-02T09:23:44.921Z,12.6
2019-05-02T09:25:49.145Z,12.4
2019-05-02T09:26:53.416Z,12.8
2019-05-02T09:29:06.822Z,13
2019-05-02T09:31:13.089Z,13
2019-05-02T09:32:27.213Z,13
2019-05-02T09:33:29.324Z,12.8
2019-05-02T09:35:35.524Z,12.6
2019-05-02T09:36:39.277Z,13.1
2019-05-02T09:38:57.941Z,12.8
2019-05-02T09:40:11.180Z,12.7
2019-05-02T09:41:32.331Z,12.8
2019-05-02T09:42:38.317Z,13.2
2019-05-02T09:43:42.845Z,12.8
2019-05-02T09:44:57.701Z,12.6
2019-05-02T09:46:02.351Z,12.8
2019-05-02T09:48:09.501Z,13
2019-05-02T09:49:17.514Z,12.9
2019-05-02T09:50:38.815Z,12.5
2019-05-02T09:52:03.126Z,12.6
2019-05-02T09:53:05.693Z,12.5
2019-05-02T09:54:08.110Z,12.8
2019-05-02T09:56:14.724Z,13.3
2019-05-02T09:58:25.216Z,12.8
2019-05-02T09:59:34.233Z,12.9
2019-05-02T10:00:37.435Z,12.8
2019-05-02T10:01:41.915Z,12.9
2019-05-02T10:03:46.394Z,12.6
2019-05-02T10:05:53.350Z,13.1
2019-05-02T10:08:14.265Z,12.6
2019-05-02T10:09:28.175Z,12.7
2019-05-02T10:10:32.571Z,12.7
2019-05-02T10:11:34.683Z,13.1
2019-05-02T10:13:38.917Z,13.2
2019-05-02T10:15:45.537Z,12.9
2019-05-02T10:16:47.639Z,12.6
2019-05-02T10:17:51.770Z,13
2019-05-02T10:18:53.981Z,13.2
2019-05-02T10:21:00.432Z,13.3
2019-05-02T10:23:05.481Z,13.7
2019-05-02T10:24:07.867Z,13.5
2019-05-02T10:26:26.292Z,12.9
2019-05-02T10:28:32.991Z,13.5
2019-05-02T10:30:37.512Z,13.5
2019-05-02T10:32:58.159Z,13.2
2019-05-02T10:34:02.968Z,13.6
2019-05-02T10:36:24.781Z,13.7
2019-05-02T10:37:43.280Z,13.1
2019-05-02T10:39:01.616Z,13.2
2019-05-02T10:40:17.826Z,13.4
2019-05-02T10:41:19.940Z,13.3
2019-05-02T10:43:25.834Z,12.9
2019-05-02T10:44:37.580Z,13
2019-05-02T10:45:39.926Z,13
2019-05-02T10:46:42.706Z,13.3
2019-05-02T10:47:44.786Z,13.2
2019-05-02T10:48:46.877Z,13
2019-05-02T10:50:53.734Z,12.8
2019-05-02T10:52:57.893Z,12.9
2019-05-02T10:53:59.982Z,13.3
2019-05-02T10:56:06.263Z,12.6
2019-05-02T10:58:13.038Z,13.4
2019-05-02T10:59:15.100Z,13.4
2019-05-02T11:00:17.451Z,13.5
2019-05-02T11:01:19.548Z,13.4
2019-05-02T11:03:25.433Z,12.8
2019-05-02T11:04:32.616Z,13.1
2019-05-02T11:05:38.135Z,13.2
2019-05-02T11:06:47.210Z,13.4
2019-05-02T11:07:49.297Z,13.9
2019-05-02T11:08:53.819Z,13.7
2019-05-02T11:10:07.470Z,13.7
2019-05-02T11:11:09.559Z,13.4
2019-05-02T11:12:46.982Z,13.5
2019-05-02T11:14:06.096Z,13.7
2019-05-02T11:16:12.625Z,13.2
2019-05-02T11:17:19.308Z,13.4
2019-05-02T11:18:45.693Z,13.6
2019-05-02T11:19:47.737Z,13.7
2019-05-02T11:22:00.069Z,13.7
2019-05-02T11:23:03.861Z,13.3
2019-05-02T11:24:05.952Z,13.7
2019-05-02T11:26:25.603Z,13.3
2019-05-02T11:28:29.862Z,13.2
2019-05-02T11:29:33.301Z,13.6
2019-05-02T11:31:37.945Z,14
2019-05-02T11:33:44.184Z,13.8
2019-05-02T11:34:46.283Z,14.4
2019-05-02T11:35:54.404Z,14.8
2019-05-02T11:36:56.481Z,14.3
2019-05-02T11:39:54.791Z,14.4
2019-05-02T11:41:03.899Z,14
2019-05-02T11:42:07.353Z,14
2019-05-02T11:44:13.727Z,14.1
2019-05-02T11:46:18.034Z,13.5
2019-05-02T11:47:27.546Z,13.5
2019-05-02T11:48:29.614Z,13.6
2019-05-02T11:49:33.081Z,13.5
2019-05-02T11:51:38.926Z,13.9
2019-05-02T11:53:45.380Z,13.5
2019-05-02T11:56:07.557Z,13.8
2019-05-02T11:57:12.822Z,13.7
2019-05-02T11:58:15.314Z,13.5
2019-05-02T11:59:32.339Z,13.7
2019-05-02T12:02:03.238Z,13.9
2019-05-02T12:03:05.308Z,14.3
2019-05-02T12:04:17.742Z,13.7
2019-05-02T12:06:24.442Z,13.9
2019-05-02T12:07:26.549Z,13.4
2019-05-02T12:08:28.654Z,13.7
2019-05-02T12:09:32.910Z,13.8
2019-05-02T12:11:42.044Z,13.8
2019-05-02T12:13:57.812Z,14
2019-05-02T12:16:03.772Z,13.9
2019-05-02T12:17:06.278Z,14.1
2019-05-02T12:19:15.889Z,13.9
2019-05-02T12:21:23.093Z,14.4
2019-05-02T12:23:27.506Z,14.7
2019-05-02T12:24:31.694Z,14.2
2019-05-02T12:26:36.405Z,14.4
2019-05-02T12:28:43.434Z,13.9
2019-05-02T12:29:50.058Z,14.3
2019-05-02T12:31:13.039Z,14.1
2019-05-02T12:33:22.855Z,14.3
2019-05-02T12:34:24.926Z,13.9
2019-05-02T12:36:29.839Z,13.8
2019-05-02T12:38:35.891Z,14
2019-05-02T12:39:37.960Z,13.8
2019-05-02T12:40:41.962Z,14
2019-05-02T12:41:46.877Z,14.4
2019-05-02T12:43:53.738Z,13.6
2019-05-02T12:45:57.975Z,13.8
2019-05-02T12:47:00.051Z,14
2019-05-02T12:49:05.901Z,13.7
2019-05-02T12:51:10.141Z,13.8
2019-05-02T12:53:16.136Z,13.7
2019-05-02T12:54:18.206Z,13.8
2019-05-02T12:56:24.638Z,14.1
2019-05-02T12:58:28.871Z,14.6
2019-05-02T12:59:33.235Z,14.4
2019-05-02T13:00:35.306Z,14.4
2019-05-02T13:01:37.393Z,14.6
2019-05-02T13:03:44.737Z,14.1
2019-05-02T13:05:49.001Z,13.9
2019-05-02T13:06:53.758Z,14
2019-05-02T13:08:58.748Z,14.1
2019-05-02T13:11:08.246Z,13.7
2019-05-02T13:13:16.822Z,13.9
2019-05-02T13:14:23.306Z,14.2
2019-05-02T13:16:27.731Z,14.4
2019-05-02T13:17:47.929Z,14.6
2019-05-02T13:19:02.139Z,14.6
2019-05-02T13:21:23.759Z,14.3
2019-05-02T13:22:25.818Z,14.4
2019-05-02T13:23:37.869Z,14.5
2019-05-02T13:24:39.953Z,14.3
2019-05-02T13:26:45.962Z,14.2
2019-05-02T13:28:52.796Z,14.1
2019-05-02T13:29:54.876Z,14.2
2019-05-02T13:32:01.865Z,14.1
2019-05-02T13:34:15.896Z,14.6
2019-05-02T13:35:17.978Z,14.4
2019-05-02T13:36:22.084Z,14.3
2019-05-02T13:37:24.166Z,14.6
2019-05-02T13:39:28.362Z,13.9
2019-05-02T13:40:33.417Z,13.9
2019-05-02T13:41:35.819Z,14
2019-05-02T13:42:38.299Z,14.1
2019-05-02T13:44:44.576Z,13.9
2019-05-02T13:45:46.944Z,14
2019-05-02T13:47:53.007Z,14.3
2019-05-02T13:50:04.847Z,14.5
2019-05-02T13:52:09.403Z,14.1
2019-05-02T13:53:13.260Z,13.9
2019-05-02T13:55:17.478Z,14.2
2019-05-02T13:57:22.930Z,14.1
2019-05-02T13:58:34.312Z,13.6
2019-05-02T14:00:38.806Z,13.4
2019-05-02T14:02:45.031Z,14.1
2019-05-02T14:04:49.633Z,13.7
2019-05-02T14:05:55.132Z,14.1
2019-05-02T14:08:01.712Z,14.2
2019-05-02T14:09:22.783Z,13.8
2019-05-02T14:10:24.882Z,13.9
2019-05-02T14:11:26.953Z,13.8
2019-05-02T14:12:29.035Z,13.9
2019-05-02T14:13:32.679Z,13.8
2019-05-02T14:15:36.887Z,14.3
2019-05-02T14:17:43.301Z,14
2019-05-02T14:18:45.413Z,13.9
2019-05-02T14:20:49.624Z,13.6
2019-05-02T14:22:55.082Z,14.6
2019-05-02T14:23:57.163Z,14.7
2019-05-02T14:24:59.238Z,14.4
2019-05-02T14:26:03.367Z,14.6
2019-05-02T14:27:17.854Z,14.7
2019-05-02T14:28:19.933Z,14.5
2019-05-02T14:30:47.241Z,14.4
2019-05-02T14:31:49.304Z,14.6
2019-05-02T14:32:53.345Z,14.6
2019-05-02T14:33:55.694Z,14.4
2019-05-02T14:36:02.256Z,14.5
2019-05-02T14:38:06.486Z,14
2019-05-02T14:39:08.567Z,13.7
2019-05-02T14:40:12.671Z,13.9
2019-05-02T14:41:15.038Z,13.9
2019-05-02T14:42:27.846Z,13.6
2019-05-02T14:43:32.007Z,13.5
2019-05-02T14:45:34.335Z,13.7
2019-05-02T14:47:44.824Z,13.9
2019-05-02T14:48:47.327Z,13.9
2019-05-02T14:50:53.120Z,14.4
2019-05-02T14:52:07.808Z,14.3
2019-05-02T14:53:12.184Z,13.6
2019-05-02T14:55:29.730Z,14.1
2019-05-02T14:56:48.566Z,14.2
2019-05-02T14:57:57.006Z,13.5
2019-05-02T14:58:59.284Z,13.7
2019-05-02T15:01:06.789Z,14
2019-05-02T15:03:13.438Z,14.3
2019-05-02T15:04:15.534Z,14.6
2019-05-02T15:05:30.455Z,14.5
2019-05-02T15:06:48.039Z,14.6
2019-05-02T15:08:02.315Z,14.8
2019-05-02T15:09:08.811Z,14.9
2019-05-02T15:11:15.051Z,14.7
2019-05-02T15:13:24.554Z,14.1
2019-05-02T15:14:28.836Z,14.2
2019-05-02T15:15:44.123Z,14
2019-05-02T15:16:59.194Z,14
2019-05-02T15:18:03.505Z,14.2
2019-05-02T15:19:05.616Z,13.7
2019-05-02T15:21:17.513Z,14.6
2019-05-02T15:22:20.010Z,14.3
2019-05-02T15:23:24.097Z,14.5
2019-05-02T15:24:39.031Z,14.3
2019-05-02T15:25:56.393Z,14.3
2019-05-02T15:28:03.423Z,14.4
2019-05-02T15:29:27.787Z,14.4
2019-05-02T15:30:29.845Z,14.4
2019-05-02T15:31:35.291Z,14.4
2019-05-02T15:32:47.202Z,14.6
2019-05-02T15:33:49.273Z,14.6
2019-05-02T15:36:08.258Z,14.4
2019-05-02T15:37:16.860Z,14.1
2019-05-02T15:38:29.101Z,14.1
2019-05-02T15:41:33.771Z,13.9
2019-05-02T15:43:49.865Z,14.2
2019-05-02T15:45:06.028Z,14.4
2019-05-02T15:46:08.401Z,14.4
2019-05-02T15:47:12.353Z,14.4
2019-05-02T15:48:29.179Z,14.5
2019-05-02T15:49:45.308Z,14.7
2019-05-02T15:51:09.835Z,14.7
2019-05-02T15:52:13.565Z,14.3
2019-05-02T15:53:15.657Z,14
2019-05-02T15:54:23.398Z,14.1
2019-05-02T15:56:28.028Z,14.6
2019-05-02T15:57:49.884Z,14.5
2019-05-02T15:58:57.941Z,14.5
2019-05-02T16:00:02.754Z,14.7
2019-05-02T16:01:06.046Z,14.6
2019-05-02T16:02:08.141Z,14.6
2019-05-02T16:03:12.142Z,14.4
2019-05-02T16:04:26.435Z,14.4
2019-05-02T16:06:34.818Z,14.5
2019-05-02T16:07:47.916Z,14.7
2019-05-02T16:08:52.302Z,14.4
2019-05-02T16:10:05.006Z,14.5
2019-05-02T16:11:17.578Z,14.9
2019-05-02T16:13:22.881Z,14.8
2019-05-02T16:14:36.766Z,14.8
2019-05-02T16:15:38.790Z,14.4
2019-05-02T16:16:46.186Z,14.7
2019-05-02T16:18:52.951Z,14.9
2019-05-02T16:20:13.893Z,14.9
